createdAt,value
2019-03-05T00:01:51.782Z,0.80
2019-03-05T00:04:20.328Z,0.70
2019-03-05T00:06:48.966Z,0.60
2019-03-05T00:09:19.225Z,0.73
2019-03-05T00:11:47.890Z,0.80
2019-03-05T00:14:18.697Z,1.00
2019-03-05T00:16:46.638Z,0.80
2019-03-05T00:19:15.175Z,0.63
2019-03-05T00:21:43.694Z,0.90
2019-03-05T00:24:48.612Z,1.00
2019-03-05T00:27:17.138Z,1.00
2019-03-05T00:29:54.586Z,1.00
2019-03-05T00:32:23.181Z,0.80
2019-03-05T00:35:25.041Z,0.70
2019-03-05T00:37:56.581Z,0.80
2019-03-05T00:40:34.170Z,0.90
2019-03-05T00:43:05.567Z,1.40
2019-03-05T00:45:56.521Z,0.90
2019-03-05T00:48:40.033Z,1.00
2019-03-05T00:51:45.010Z,0.70
2019-03-05T00:54:22.845Z,1.10
2019-03-05T00:57:12.688Z,0.70
2019-03-05T00:59:44.256Z,1.03
2019-03-05T01:02:21.719Z,0.83
2019-03-05T01:05:05.340Z,0.90
2019-03-05T01:07:33.916Z,1.00
2019-03-05T01:10:02.708Z,1.10
2019-03-05T01:12:31.277Z,0.80
2019-03-05T01:14:59.889Z,0.80
2019-03-05T01:17:28.423Z,0.80
2019-03-05T01:19:56.992Z,1.00
2019-03-05T01:22:25.609Z,0.70
2019-03-05T01:24:54.118Z,0.83
2019-03-05T01:27:22.598Z,0.90
2019-03-05T01:29:51.065Z,0.87
2019-03-05T01:32:24.164Z,1.03
2019-03-05T01:34:54.436Z,0.70
2019-03-05T01:37:22.943Z,0.80
2019-03-05T01:39:53.196Z,0.90
2019-03-05T01:42:21.674Z,0.80
2019-03-05T01:44:50.192Z,1.00
2019-03-05T01:47:18.687Z,1.10
2019-03-05T01:49:47.167Z,0.80
2019-03-05T01:52:15.736Z,0.80
2019-03-05T01:54:44.296Z,1.00
2019-03-05T01:57:12.777Z,0.80
2019-03-05T01:59:41.268Z,0.90
2019-03-05T02:02:09.846Z,0.70
2019-03-05T02:04:38.306Z,0.90
2019-03-05T02:07:06.868Z,0.83
2019-03-05T02:09:35.373Z,1.20
2019-03-05T02:12:03.869Z,0.77
2019-03-05T02:14:32.332Z,1.00
2019-03-05T02:17:00.799Z,1.00
2019-03-05T02:19:43.796Z,1.00
2019-03-05T02:22:21.120Z,0.80
2019-03-05T02:25:02.018Z,1.00
2019-03-05T02:27:51.246Z,0.80
2019-03-05T02:30:40.272Z,0.80
2019-03-05T02:33:26.553Z,1.10
2019-03-05T02:36:24.779Z,0.80
2019-03-05T02:39:28.422Z,0.80
2019-03-05T02:42:19.430Z,0.80
2019-03-05T02:45:07.495Z,0.70
2019-03-05T02:47:39.138Z,0.90
2019-03-05T02:50:36.145Z,0.63
2019-03-05T02:53:31.481Z,0.70
2019-03-05T02:56:20.959Z,0.90
2019-03-05T02:58:48.475Z,0.73
2019-03-05T03:01:18.666Z,0.93
2019-03-05T03:03:48.799Z,0.93
2019-03-05T03:06:18.939Z,0.80
2019-03-05T03:08:47.573Z,0.93
2019-03-05T03:11:16.071Z,0.80
2019-03-05T03:13:44.613Z,1.63
2019-03-05T03:16:13.262Z,1.10
2019-03-05T03:18:41.769Z,1.03
2019-03-05T03:21:10.315Z,1.03
2019-03-05T03:23:38.869Z,0.90
2019-03-05T03:26:07.377Z,0.90
2019-03-05T03:28:35.867Z,0.80
2019-03-05T03:31:04.336Z,0.97
2019-03-05T03:33:32.898Z,0.90
2019-03-05T03:36:16.344Z,0.90
2019-03-05T03:38:44.914Z,0.90
2019-03-05T03:41:13.493Z,0.90
2019-03-05T03:43:42.028Z,0.90
2019-03-05T03:46:10.205Z,0.77
2019-03-05T03:48:38.342Z,1.13
2019-03-05T03:51:06.502Z,1.10
2019-03-05T03:53:35.075Z,1.10
2019-03-05T03:56:03.630Z,1.67
2019-03-05T03:58:32.196Z,1.03
2019-03-05T04:01:00.896Z,0.83
2019-03-05T04:03:29.554Z,0.90
2019-03-05T04:05:58.061Z,1.00
2019-03-05T04:08:26.657Z,1.10
2019-03-05T04:10:55.138Z,1.10
2019-03-05T04:13:23.637Z,1.20
2019-03-05T04:15:52.116Z,0.87
2019-03-05T04:18:20.697Z,0.80
2019-03-05T04:20:50.832Z,1.10
2019-03-05T04:23:19.312Z,1.00
2019-03-05T04:25:47.977Z,1.10
2019-03-05T04:28:16.478Z,1.10
2019-03-05T04:30:44.980Z,1.10
2019-03-05T04:33:13.566Z,1.10
2019-03-05T04:35:42.045Z,1.10
2019-03-05T04:38:10.535Z,0.80
2019-03-05T04:40:39.034Z,1.00
2019-03-05T04:43:07.491Z,0.90
2019-03-05T04:45:42.749Z,1.40
2019-03-05T04:48:11.325Z,1.00
2019-03-05T04:50:41.461Z,0.90
2019-03-05T04:53:09.944Z,0.90
2019-03-05T04:55:38.445Z,0.97
2019-03-05T04:58:06.916Z,0.90
2019-03-05T05:00:35.443Z,1.00
2019-03-05T05:03:04.033Z,1.03
2019-03-05T05:05:32.514Z,0.90
2019-03-05T05:08:01.019Z,0.90
2019-03-05T05:10:29.496Z,0.93
2019-03-05T05:12:58.004Z,0.97
2019-03-05T05:15:31.583Z,0.97
2019-03-05T05:18:00.323Z,0.90
2019-03-05T05:20:28.886Z,1.10
2019-03-05T05:22:57.365Z,1.20
2019-03-05T05:25:26.109Z,0.90
2019-03-05T05:27:54.576Z,1.30
2019-03-05T05:30:34.124Z,1.30
2019-03-05T05:33:02.942Z,1.33
2019-03-05T05:35:31.481Z,1.40
2019-03-05T05:38:00.131Z,1.17
2019-03-05T05:40:33.734Z,1.43
2019-03-05T05:43:03.025Z,1.60
2019-03-05T05:45:37.288Z,1.33
2019-03-05T05:48:05.866Z,2.10
2019-03-05T05:50:34.412Z,1.30
2019-03-05T05:53:02.910Z,4.30
2019-03-05T05:55:31.484Z,2.60
2019-03-05T05:57:59.952Z,1.80
2019-03-05T06:00:28.783Z,1.53
2019-03-05T06:02:57.363Z,1.80
2019-03-05T06:05:25.851Z,1.60
2019-03-05T06:07:54.368Z,1.77
2019-03-05T06:10:22.859Z,1.37
2019-03-05T06:12:51.351Z,1.50
2019-03-05T06:15:19.873Z,1.47
2019-03-05T06:17:53.465Z,1.70
2019-03-05T06:20:21.978Z,2.00
2019-03-05T06:22:50.454Z,2.07
2019-03-05T06:25:18.993Z,1.57
2019-03-05T06:27:47.501Z,2.30
2019-03-05T06:30:33.044Z,2.20
2019-03-05T06:33:01.573Z,2.93
2019-03-05T06:35:30.184Z,2.60
2019-03-05T06:37:58.745Z,2.37
2019-03-05T06:40:33.686Z,2.20
2019-03-05T06:43:02.242Z,2.40
2019-03-05T06:45:30.868Z,2.40
2019-03-05T06:47:59.343Z,2.43
2019-03-05T06:50:28.858Z,2.47
2019-03-05T06:52:57.452Z,2.10
2019-03-05T06:55:26.007Z,1.90
2019-03-05T06:57:54.623Z,1.50
2019-03-05T07:00:40.890Z,1.80
2019-03-05T07:03:10.195Z,2.20
2019-03-05T07:06:14.929Z,2.20
2019-03-05T07:09:07.876Z,2.10
2019-03-05T07:11:57.322Z,1.97
2019-03-05T07:14:52.937Z,1.90
2019-03-05T07:17:32.669Z,1.83
2019-03-05T07:20:15.964Z,2.10
2019-03-05T07:22:59.040Z,2.20
2019-03-05T07:25:27.664Z,2.10
2019-03-05T07:28:11.352Z,1.63
2019-03-05T07:30:39.844Z,3.33
2019-03-05T07:33:08.351Z,2.90
2019-03-05T07:35:37.416Z,2.40
2019-03-05T07:38:06.082Z,2.20
2019-03-05T07:40:34.556Z,4.80
2019-03-05T07:43:03.024Z,2.70
2019-03-05T07:45:31.597Z,1.90
2019-03-05T07:48:00.053Z,2.40
2019-03-05T07:50:28.536Z,1.90
2019-03-05T07:52:57.053Z,2.00
2019-03-05T07:55:25.551Z,1.70
2019-03-05T07:57:54.057Z,2.13
2019-03-05T08:00:22.699Z,2.50
2019-03-05T08:02:51.329Z,2.73
2019-03-05T08:05:19.803Z,3.70
2019-03-05T08:07:48.441Z,2.47
2019-03-05T08:10:22.441Z,2.33
2019-03-05T08:12:53.989Z,2.67
2019-03-05T08:15:33.153Z,3.17
2019-03-05T08:18:01.620Z,2.40
2019-03-05T08:20:30.136Z,5.03
2019-03-05T08:22:58.616Z,3.10
2019-03-05T08:25:27.104Z,2.67
2019-03-05T08:27:55.681Z,2.37
2019-03-05T08:30:24.220Z,2.03
2019-03-05T08:32:52.672Z,1.80
2019-03-05T08:35:21.173Z,2.00
2019-03-05T08:37:49.672Z,1.90
2019-03-05T08:40:18.426Z,4.20
2019-03-05T08:42:46.929Z,2.03
2019-03-05T08:45:15.744Z,2.23
2019-03-05T08:47:44.272Z,0.90
2019-03-05T08:50:14.591Z,1.00
2019-03-05T08:52:43.189Z,1.40
2019-03-05T08:55:12.941Z,1.30
2019-03-05T08:57:41.408Z,1.30
2019-03-05T09:00:18.621Z,1.23
2019-03-05T09:02:48.914Z,1.80
2019-03-05T09:05:19.046Z,1.83
2019-03-05T09:07:47.694Z,1.10
2019-03-05T09:10:22.236Z,1.07
2019-03-05T09:12:50.693Z,1.10
2019-03-05T09:15:19.849Z,1.13
2019-03-05T09:18:03.300Z,1.07
2019-03-05T09:20:31.864Z,1.33
2019-03-05T09:23:00.312Z,1.40
2019-03-05T09:25:28.821Z,1.20
2019-03-05T09:27:57.320Z,1.03
2019-03-05T09:30:25.824Z,1.50
2019-03-05T09:32:54.311Z,0.90
2019-03-05T09:35:22.921Z,1.20
2019-03-05T09:37:51.425Z,1.10
2019-03-05T09:40:25.141Z,1.20
2019-03-05T09:42:53.712Z,1.23
2019-03-05T09:45:22.521Z,0.97
2019-03-05T09:47:50.999Z,1.00
2019-03-05T09:50:20.120Z,0.90
2019-03-05T09:52:55.014Z,1.00
2019-03-05T09:55:24.911Z,1.00
2019-03-05T09:57:53.625Z,1.10
2019-03-05T10:00:24.216Z,1.13
2019-03-05T10:02:52.906Z,2.30
2019-03-05T10:05:21.556Z,1.00
2019-03-05T10:07:50.293Z,0.97
2019-03-05T10:10:26.808Z,1.20
2019-03-05T10:12:58.901Z,1.07
2019-03-05T10:15:26.904Z,1.17
2019-03-05T10:17:55.661Z,1.00
2019-03-05T10:20:29.931Z,1.13
2019-03-05T10:22:58.646Z,1.00
2019-03-05T10:25:28.286Z,1.20
2019-03-05T10:27:57.521Z,1.27
2019-03-05T10:30:28.669Z,1.10
2019-03-05T10:33:00.887Z,1.00
2019-03-05T10:35:29.569Z,0.70
2019-03-05T10:38:00.394Z,1.00
2019-03-05T10:40:34.872Z,2.63
2019-03-05T10:43:08.907Z,1.00
2019-03-05T10:45:36.625Z,1.20
2019-03-05T10:48:05.363Z,1.13
2019-03-05T10:50:34.263Z,1.00
2019-03-05T10:53:02.989Z,1.10
2019-03-05T10:55:31.696Z,1.17
2019-03-05T10:58:00.423Z,1.30
2019-03-05T11:00:37.647Z,1.23
2019-03-05T11:03:06.468Z,0.93
2019-03-05T11:05:37.859Z,1.23
2019-03-05T11:08:06.665Z,1.10
2019-03-05T11:10:35.509Z,1.20
2019-03-05T11:13:04.253Z,1.20
2019-03-05T11:15:34.199Z,1.20
2019-03-05T11:18:04.642Z,0.90
2019-03-05T11:20:33.332Z,0.87
2019-03-05T11:23:01.999Z,1.03
2019-03-05T11:25:30.586Z,1.00
2019-03-05T11:27:59.096Z,1.10
2019-03-05T11:30:36.015Z,1.33
2019-03-05T11:33:19.746Z,1.00
2019-03-05T11:35:48.468Z,1.00
2019-03-05T11:38:17.310Z,0.80
2019-03-05T11:40:45.980Z,1.10
2019-03-05T11:43:16.621Z,1.13
2019-03-05T11:45:45.447Z,1.00
2019-03-05T11:48:15.638Z,0.93
2019-03-05T11:50:44.808Z,0.90
2019-03-05T11:53:13.532Z,1.23
2019-03-05T11:55:42.114Z,1.10
2019-03-05T11:58:10.842Z,1.00
2019-03-05T12:00:50.417Z,1.00
2019-03-05T12:03:19.044Z,1.00
2019-03-05T12:05:47.785Z,1.10
2019-03-05T12:08:16.451Z,1.30
2019-03-05T12:10:45.156Z,0.80
2019-03-05T12:13:14.663Z,0.87
2019-03-05T12:15:45.015Z,0.97
2019-03-05T12:18:13.657Z,0.80
2019-03-05T12:20:42.174Z,1.00
2019-03-05T12:23:11.862Z,0.93
2019-03-05T12:25:41.369Z,1.00
2019-03-05T12:28:11.063Z,1.00
2019-03-05T12:30:40.469Z,0.93
2019-03-05T12:33:09.203Z,0.90
2019-03-05T12:35:37.925Z,0.90
2019-03-05T12:38:06.538Z,0.93
2019-03-05T12:40:36.693Z,0.80
2019-03-05T12:43:05.317Z,0.93
2019-03-05T12:45:33.959Z,0.93
2019-03-05T12:48:04.183Z,1.00
2019-03-05T12:50:35.600Z,0.80
2019-03-05T12:53:04.839Z,0.70
2019-03-05T12:55:33.464Z,0.80
2019-03-05T12:58:02.164Z,0.80
2019-03-05T13:00:33.842Z,1.00
2019-03-05T13:03:02.619Z,0.80
2019-03-05T13:05:31.208Z,0.70
2019-03-05T13:07:59.833Z,0.80
2019-03-05T13:10:36.077Z,0.80
2019-03-05T13:13:03.066Z,1.40
2019-03-05T13:15:33.152Z,0.80
2019-03-05T13:18:01.970Z,0.80
2019-03-05T13:20:30.651Z,0.70
2019-03-05T13:22:59.347Z,0.90
2019-03-05T13:25:28.668Z,0.90
2019-03-05T13:28:02.149Z,0.80
2019-03-05T13:30:29.970Z,0.90
2019-03-05T13:33:00.517Z,0.93
2019-03-05T13:35:30.501Z,0.83
2019-03-05T13:38:10.031Z,1.00
2019-03-05T13:40:40.476Z,0.80
2019-03-05T13:43:08.988Z,0.73
2019-03-05T13:45:37.692Z,0.87
2019-03-05T13:48:09.654Z,0.87
2019-03-05T13:50:50.294Z,0.70
2019-03-05T13:53:40.037Z,0.80
2019-03-05T13:56:26.790Z,0.77
2019-03-05T13:59:32.957Z,0.60
2019-03-05T14:02:01.532Z,0.90
2019-03-05T14:04:41.611Z,0.70
2019-03-05T14:07:16.271Z,0.77
2019-03-05T14:09:43.818Z,0.90
2019-03-05T14:12:12.424Z,0.70
2019-03-05T14:14:41.003Z,0.70
2019-03-05T14:17:11.207Z,0.80
2019-03-05T14:19:39.800Z,0.70
2019-03-05T14:22:08.715Z,0.80
2019-03-05T14:24:37.387Z,0.67
2019-03-05T14:27:16.565Z,0.83
2019-03-05T14:29:45.304Z,0.70
2019-03-05T14:32:14.165Z,0.67
2019-03-05T14:34:45.350Z,0.80
2019-03-05T14:37:15.098Z,0.90
2019-03-05T14:39:48.498Z,0.73
2019-03-05T14:42:14.145Z,0.90
2019-03-05T14:44:43.004Z,0.70
2019-03-05T14:47:27.000Z,0.77
2019-03-05T14:49:55.508Z,0.70
2019-03-05T14:52:24.155Z,0.70
2019-03-05T14:54:52.756Z,0.70
2019-03-05T14:57:21.407Z,1.03
2019-03-05T14:59:49.991Z,0.70
2019-03-05T15:02:18.652Z,0.80
2019-03-05T15:04:47.254Z,1.20
2019-03-05T15:07:15.833Z,1.00
2019-03-05T15:09:44.471Z,1.30
2019-03-05T15:12:13.164Z,1.70
2019-03-05T15:14:41.726Z,1.40
2019-03-05T15:17:10.492Z,1.00
2019-03-05T15:19:39.113Z,1.20
2019-03-05T15:22:07.725Z,1.10
2019-03-05T15:24:36.302Z,1.10
2019-03-05T15:27:04.943Z,1.30
2019-03-05T15:29:33.536Z,1.03
2019-03-05T15:32:02.132Z,0.97
2019-03-05T15:34:30.697Z,0.87
2019-03-05T15:36:59.284Z,0.80
2019-03-05T15:39:27.886Z,0.80
2019-03-05T15:41:56.511Z,0.97
2019-03-05T15:44:25.118Z,0.87
2019-03-05T15:46:53.775Z,0.90
2019-03-05T15:49:22.335Z,0.90
2019-03-05T15:51:51.073Z,0.70
2019-03-05T15:54:19.688Z,1.40
2019-03-05T15:56:48.417Z,1.73
2019-03-05T15:59:16.965Z,2.20
2019-03-05T16:01:45.583Z,3.33
2019-03-05T16:04:14.133Z,1.67
2019-03-05T16:06:42.693Z,1.70
2019-03-05T16:09:16.432Z,1.60
2019-03-05T16:11:44.937Z,1.50
2019-03-05T16:14:13.419Z,1.97
2019-03-05T16:17:06.160Z,2.00
2019-03-05T16:19:34.673Z,1.50
2019-03-05T16:22:03.176Z,1.43
2019-03-05T16:24:33.904Z,1.60
2019-03-05T16:27:01.914Z,1.57
2019-03-05T16:29:30.501Z,1.27
2019-03-05T16:32:00.716Z,1.30
2019-03-05T16:34:33.265Z,1.67
2019-03-05T16:37:11.923Z,1.90
2019-03-05T16:39:54.084Z,1.40
2019-03-05T16:42:30.769Z,1.50
2019-03-05T16:45:05.045Z,1.37
2019-03-05T16:47:41.098Z,1.60
2019-03-05T16:50:29.409Z,1.17
2019-03-05T16:53:02.264Z,1.30
2019-03-05T16:55:35.110Z,1.63
2019-03-05T16:58:20.508Z,1.57
2019-03-05T17:01:05.584Z,1.90
2019-03-05T17:03:35.732Z,1.63
2019-03-05T17:06:06.300Z,1.77
2019-03-05T17:08:36.656Z,1.60
2019-03-05T17:11:09.358Z,2.30
2019-03-05T17:13:38.209Z,2.37
2019-03-05T17:16:06.697Z,2.23
2019-03-05T17:18:35.190Z,1.90
2019-03-05T17:21:03.773Z,1.83
2019-03-05T17:23:32.328Z,1.43
2019-03-05T17:26:00.891Z,1.80
2019-03-05T17:28:29.407Z,1.77
2019-03-05T17:30:57.993Z,1.60
2019-03-05T17:33:26.477Z,1.80
2019-03-05T17:35:54.981Z,1.83
2019-03-05T17:38:23.525Z,1.40
2019-03-05T17:40:52.108Z,3.57
2019-03-05T17:43:20.750Z,1.80
2019-03-05T17:45:49.218Z,1.77
2019-03-05T17:48:17.700Z,3.50
2019-03-05T17:50:46.278Z,1.70
2019-03-05T17:53:14.820Z,1.80
2019-03-05T17:55:44.365Z,2.20
2019-03-05T17:58:12.832Z,2.97
2019-03-05T18:00:43.057Z,2.20
2019-03-05T18:03:11.561Z,1.83
2019-03-05T18:05:40.116Z,2.17
2019-03-05T18:08:08.908Z,1.73
2019-03-05T18:10:37.476Z,2.67
2019-03-05T18:13:06.106Z,2.23
2019-03-05T18:15:34.714Z,2.17
2019-03-05T18:18:03.244Z,2.77
2019-03-05T18:20:32.261Z,2.80
2019-03-05T18:23:00.816Z,1.80
2019-03-05T18:25:29.298Z,2.30
2019-03-05T18:27:57.853Z,2.10
2019-03-05T18:30:28.872Z,2.30
2019-03-05T18:32:57.677Z,2.10
2019-03-05T18:35:26.225Z,1.70
2019-03-05T18:37:55.496Z,1.77
2019-03-05T18:40:25.009Z,2.20
2019-03-05T18:42:54.108Z,4.57
2019-03-05T18:45:31.334Z,2.53
2019-03-05T18:47:59.883Z,2.00
2019-03-05T18:50:28.594Z,2.00
2019-03-05T18:52:58.880Z,2.30
2019-03-05T18:55:27.848Z,1.90
2019-03-05T18:57:56.416Z,2.20
2019-03-05T19:00:34.424Z,2.20
2019-03-05T19:03:08.540Z,2.20
2019-03-05T19:05:37.462Z,1.53
2019-03-05T19:08:06.101Z,1.63
2019-03-05T19:10:34.772Z,1.20
2019-03-05T19:13:03.513Z,1.10
2019-03-05T19:15:32.441Z,1.20
2019-03-05T19:18:01.451Z,1.30
2019-03-05T19:20:33.276Z,1.30
2019-03-05T19:23:01.745Z,1.50
2019-03-05T19:25:32.080Z,1.30
2019-03-05T19:28:00.634Z,1.43
2019-03-05T19:30:35.045Z,1.30
2019-03-05T19:33:03.664Z,1.00
2019-03-05T19:35:32.241Z,1.60
2019-03-05T19:38:00.713Z,1.30
2019-03-05T19:40:40.717Z,1.20
2019-03-05T19:43:09.240Z,1.10
2019-03-05T19:45:37.729Z,1.50
2019-03-05T19:48:06.653Z,1.10
2019-03-05T19:50:35.201Z,1.27
2019-03-05T19:53:03.813Z,1.23
2019-03-05T19:55:32.497Z,1.37
2019-03-05T19:58:11.180Z,0.90
2019-03-05T20:00:58.189Z,1.40
2019-03-05T20:03:26.805Z,1.50
2019-03-05T20:05:55.393Z,1.33
2019-03-05T20:08:24.041Z,1.43
2019-03-05T20:10:52.691Z,1.70
2019-03-05T20:13:21.340Z,1.10
2019-03-05T20:15:49.937Z,0.90
2019-03-05T20:18:18.546Z,1.10
2019-03-05T20:20:47.194Z,0.90
2019-03-05T20:23:15.792Z,1.13
2019-03-05T20:25:44.349Z,0.90
2019-03-05T20:28:12.973Z,1.20
2019-03-05T20:30:41.552Z,1.40
2019-03-05T20:33:10.233Z,1.30
2019-03-05T20:35:38.809Z,1.27
2019-03-05T20:38:07.468Z,0.93
2019-03-05T20:40:36.069Z,1.10
2019-03-05T20:43:05.410Z,1.00
2019-03-05T20:45:37.021Z,1.10
2019-03-05T20:48:05.752Z,1.17
2019-03-05T20:50:35.126Z,1.00
2019-03-05T20:53:03.646Z,1.13
2019-03-05T20:55:32.353Z,1.20
2019-03-05T20:58:00.989Z,2.93
2019-03-05T21:00:33.794Z,1.50
2019-03-05T21:03:07.053Z,1.33
2019-03-05T21:05:38.704Z,1.40
2019-03-05T21:08:07.441Z,0.80
2019-03-05T21:10:36.187Z,0.97
2019-03-05T21:13:04.900Z,1.10
2019-03-05T21:15:35.400Z,1.10
2019-03-05T21:18:06.828Z,1.00
2019-03-05T21:20:35.372Z,1.00
2019-03-05T21:23:03.944Z,0.87
2019-03-05T21:25:33.031Z,0.70
2019-03-05T21:28:01.584Z,0.90
2019-03-05T21:30:30.158Z,0.80
2019-03-05T21:32:58.736Z,0.80
2019-03-05T21:35:27.281Z,1.00
2019-03-05T21:37:57.772Z,0.83
2019-03-05T21:40:30.550Z,1.00
2019-03-05T21:42:59.189Z,0.97
2019-03-05T21:45:33.025Z,1.00
2019-03-05T21:48:02.241Z,1.00
2019-03-05T21:50:30.812Z,1.10
2019-03-05T21:52:59.420Z,1.03
2019-03-05T21:55:28.041Z,1.00
2019-03-05T21:57:56.599Z,0.70
2019-03-05T22:00:31.188Z,0.70
2019-03-05T22:03:01.282Z,0.60
2019-03-05T22:05:30.712Z,1.20
2019-03-05T22:07:59.222Z,2.50
2019-03-05T22:10:27.769Z,1.37
2019-03-05T22:12:56.330Z,1.67
2019-03-05T22:15:27.150Z,1.00
2019-03-05T22:17:55.692Z,1.00
2019-03-05T22:20:24.353Z,1.30
2019-03-05T22:22:52.924Z,0.90
2019-03-05T22:25:25.851Z,0.90
2019-03-05T22:27:54.620Z,0.80
2019-03-05T22:30:36.820Z,0.70
2019-03-05T22:33:05.381Z,0.80
2019-03-05T22:35:33.531Z,1.30
2019-03-05T22:38:02.090Z,1.10
2019-03-05T22:40:30.732Z,1.80
2019-03-05T22:42:59.229Z,1.70
2019-03-05T22:45:29.868Z,1.80
2019-03-05T22:47:58.619Z,1.20
2019-03-05T22:50:27.304Z,1.43
2019-03-05T22:52:56.026Z,0.97
2019-03-05T22:55:24.650Z,1.80
2019-03-05T22:57:53.272Z,1.40
2019-03-05T23:00:43.792Z,1.13
2019-03-05T23:03:24.109Z,1.60
2019-03-05T23:05:52.888Z,1.97
2019-03-05T23:08:22.742Z,1.80
2019-03-05T23:10:51.332Z,1.83
2019-03-05T23:13:20.080Z,1.60
2019-03-05T23:15:49.461Z,1.63
2019-03-05T23:18:18.463Z,1.43
2019-03-05T23:20:47.078Z,2.40
2019-03-05T23:23:15.703Z,2.07
2019-03-05T23:25:44.432Z,1.50
2019-03-05T23:28:12.981Z,2.00
2019-03-05T23:30:41.752Z,1.70
2019-03-05T23:33:10.305Z,2.00
2019-03-05T23:35:38.794Z,1.43
2019-03-05T23:38:07.513Z,1.80
2019-03-05T23:40:36.029Z,1.47
2019-03-05T23:43:04.886Z,1.30
2019-03-05T23:45:33.705Z,1.50
2019-03-05T23:48:02.190Z,1.40
2019-03-05T23:50:30.814Z,1.20
2019-03-05T23:52:59.552Z,1.30
2019-03-05T23:55:28.621Z,1.67
2019-03-05T23:57:57.187Z,1.80
